Time;durP1;ratioP1;P1;durP2;ratioP2;P2;SDS_P1;SDS_P2;PMS_P1;PMS_P2;Temp;Humidity;BMP_temperature;BMP_pressure;BME280_temperature;BME280_humidity;BME280_pressure;Samples;Min_cycle;Max_cycle;Signal;HPM_P1;HPM_P2
2022/05/23 00:01:09;;;;;;;3.47;1.95;;;;;;;19.33;48.68;99004.28;3120717;28;20544;-76
2022/05/23 00:02:41;;;;;;;6.28;2.30;;;;;;;19.61;48.92;99056.28;2964959;28;20053;-76
2022/05/23 00:04:11;;;;;;;3.72;2.22;;;;;;;19.24;48.99;99004.34;3122043;28;20051;-77
2022/05/23 00:05:45;;;;;;;4.22;1.73;;;;;;;19.42;48.96;99033.44;3122186;28;20061;-74
2022/05/23 00:07:29;;;;;;;3.45;2.50;;;;;;;19.65;49.30;99074.41;3121485;28;20063;-74
2022/05/23 00:09:00;;;;;;;5.18;2.53;;;;;;;19.58;49.40;99065.38;3116713;28;20053;-74
2022/05/23 00:10:32;;;;;;;6.80;2.35;;;;;;;19.55;49.48;99074.41;3121646;28;20456;-74
2022/05/23 00:12:04;;;;;;;5.30;2.47;;;;;;;19.54;49.66;99078.00;3121867;28;20596;-75
2022/05/23 00:13:36;;;;;;;5.80;1.80;;;;;;;19.09;49.41;99003.97;3121524;28;20068;-75
2022/05/23 00:15:11;;;;;;;3.75;2.20;;;;;;;19.50;49.34;99068.72;3120548;28;20381;-75
2022/05/23 00:16:46;;;;;;;4.10;2.30;;;;;;;19.54;49.37;99074.53;3122021;28;20060;-75
2022/05/23 00:18:18;;;;;;;3.40;1.90;;;;;;;19.45;49.36;99067.47;3121712;28;20495;-75
2022/05/23 00:19:50;;;;;;;4.10;2.03;;;;;;;19.45;49.42;99065.66;3119494;28;20061;-75
2022/05/23 00:21:23;;;;;;;3.97;2.05;;;;;;;19.17;49.50;99022.56;3120324;28;20080;-75
2022/05/23 00:22:55;;;;;;;2.95;1.90;;;;;;;19.44;49.36;99066.66;3121463;28;20046;-75
2022/05/23 00:24:27;;;;;;;3.58;2.05;;;;;;;19.45;49.52;99070.94;3122013;28;20087;-76
2022/05/23 00:25:59;;;;;;;3.78;2.00;;;;;;;19.45;49.59;99078.03;3121863;28;20057;-75
2022/05/23 00:27:31;;;;;;;4.07;2.40;;;;;;;19.43;49.61;99066.78;3121129;28;20115;-76
2022/05/23 00:29:03;;;;;;;3.55;2.15;;;;;;;19.37;49.72;99054.16;3122179;28;20108;-75
2022/05/23 00:30:35;;;;;;;3.75;2.22;;;;;;;19.42;49.78;99067.78;3121525;28;20511;-75
2022/05/23 00:35:53;;;;;;;6.28;2.30;;;;;;;19.36;49.72;99071.81;3121805;28;20053;-75
2022/05/23 00:37:27;;;;;;;4.20;1.98;;;;;;;19.36;49.64;99065.72;3121419;28;20053;-76
2022/05/23 00:39:00;;;;;;;3.65;2.05;;;;;;;19.05;49.65;99029.81;3121526;28;20060;-75
2022/05/23 00:40:39;;;;;;;3.67;2.47;;;;;;;19.20;49.87;99051.31;3121396;28;20110;-76
2022/05/23 00:44:05;;;;;;;3.90;2.25;;;;;;;19.25;50.06;99056.97;3121304;28;20073;-75
2022/05/23 00:45:36;;;;;;;;;;;;;;;19.22;50.15;99066.97;3122386;28;20060;-75
2022/05/23 00:47:18;;;;;;;7.10;2.40;;;;;;;19.17;50.35;99067.44;3121395;28;20411;-76
2022/05/23 00:48:51;;;;;;;6.10;2.58;;;;;;;18.91;50.32;99024.97;3121509;28;20088;-75
2022/05/23 00:50:22;;;;;;;5.88;2.22;;;;;;;19.12;50.56;99069.66;3121380;28;20511;-75
2022/05/23 00:51:56;;;;;;;3.20;2.20;;;;;;;19.13;50.38;99073.94;3121111;28;20053;-75
2022/05/23 00:53:33;;;;;;;5.05;2.47;;;;;;;19.15;50.48;99068.53;3121255;28;20526;-76
2022/05/23 00:55:09;;;;;;;3.83;2.65;;;;;;;19.07;50.68;99069.22;3121477;28;20045;-75
2022/05/23 00:56:45;;;;;;;3.17;2.08;;;;;;;19.03;50.88;99066.03;3121469;28;20053;-75
2022/05/23 00:58:21;;;;;;;4.07;2.45;;;;;;;19.04;50.74;99070.34;3121391;28;20049;-75
2022/05/23 00:59:52;;;;;;;3.47;2.30;;;;;;;19.02;50.77;99059.13;3121394;28;20120;-75
2022/05/23 01:01:27;;;;;;;4.45;2.10;;;;;;;18.97;50.92;99060.50;3121249;28;20050;-74
2022/05/23 01:03:07;;;;;;;4.07;2.10;;;;;;;18.96;50.90;99062.31;3121021;28;20096;-74
2022/05/23 01:04:39;;;;;;;5.65;2.50;;;;;;;18.61;51.06;99007.47;3121391;28;20064;-76
2022/05/23 01:06:11;;;;;;;9.37;2.13;;;;;;;18.96;51.05;99056.19;3121204;28;20519;-75
2022/05/23 01:07:42;;;;;;;4.20;2.15;;;;;;;18.92;51.00;99052.19;3121465;28;20081;-76
2022/05/23 01:09:15;;;;;;;3.67;2.35;;;;;;;18.96;51.28;99053.53;3120946;28;20066;-75
2022/05/23 01:10:47;;;;;;;;;;;;;;;18.91;51.16;99061.91;3122031;28;20069;-74
2022/05/23 01:12:18;;;;;;;3.88;2.42;;;;;;;18.89;51.27;99055.09;3121431;28;20389;-74
2022/05/23 01:13:53;;;;;;;3.33;2.45;;;;;;;18.89;51.31;99055.91;3121038;28;20056;-75
2022/05/23 01:15:27;;;;;;;4.00;2.63;;;;;;;18.88;51.45;99054.28;3121213;28;20060;-74
2022/05/23 01:16:59;;;;;;;3.80;2.30;;;;;;;18.81;51.40;99042.59;3121270;28;20478;-74
2022/05/23 01:18:31;;;;;;;3.63;2.28;;;;;;;18.46;51.42;98990.41;3120368;28;20049;-74
2022/05/23 01:20:04;;;;;;;3.45;2.33;;;;;;;18.48;51.45;98983.19;3120820;28;20061;-75
2022/05/23 01:21:55;;;;;;;11.18;2.83;;;;;;;18.50;51.71;98991.81;3120760;28;21086;-74
2022/05/23 01:23:34;;;;;;;3.05;2.35;;;;;;;18.81;51.58;99038.19;3121050;28;20049;-75
2022/05/23 01:25:16;;;;;;;5.60;2.72;;;;;;;18.73;51.94;99034.53;3120980;28;20072;-75
2022/05/23 01:26:51;;;;;;;3.53;2.38;;;;;;;18.30;51.98;98970.69;3121221;28;20458;-74
2022/05/23 01:28:23;;;;;;;5.07;2.80;;;;;;;18.46;52.06;99014.97;3121051;28;20052;-75
2022/05/23 01:29:55;;;;;;;2.75;2.22;;;;;;;18.26;52.10;98987.78;3120827;28;20573;-75
2022/05/23 01:31:27;;;;;;;7.40;2.22;;;;;;;18.33;51.85;98991.50;3121132;28;20053;-75
2022/05/23 01:32:59;;;;;;;3.80;2.40;;;;;;;18.67;52.13;99043.00;3120575;28;20053;-75
2022/05/23 01:34:31;;;;;;;5.28;3.05;;;;;;;18.72;52.14;99053.97;3121035;28;20053;-75
2022/05/23 01:36:04;;;;;;;5.68;3.00;;;;;;;18.72;52.14;99049.50;3120796;28;20522;-75
2022/05/23 01:37:35;;;;;;;7.18;3.25;;;;;;;18.71;51.89;99053.13;3114085;28;20053;-74
2022/05/23 01:39:08;;;;;;;12.77;2.97;;;;;;;18.69;52.25;99055.06;3120883;28;20108;-76
2022/05/23 01:40:40;;;;;;;4.45;2.65;;;;;;;18.70;51.97;99048.84;3120713;28;20098;-76
2022/05/23 01:42:13;;;;;;;6.85;2.58;;;;;;;18.69;51.83;99054.22;3120874;28;20430;-75
2022/05/23 01:43:45;;;;;;;6.15;3.33;;;;;;;18.58;52.01;99039.41;3121070;28;20084;-75
2022/05/23 01:45:20;;;;;;;3.55;2.33;;;;;;;18.70;52.14;99045.38;3120524;28;20099;-75
2022/05/23 01:46:51;;;;;;;5.45;3.03;;;;;;;18.52;52.29;99026.78;3120985;28;20046;-75
2022/05/23 01:48:23;;;;;;;5.15;2.70;;;;;;;18.65;52.09;99043.13;3120656;28;20261;-75
2022/05/23 01:49:55;;;;;;;8.93;3.10;;;;;;;18.01;52.12;98946.97;3120586;28;20056;-75
2022/05/23 01:51:28;;;;;;;3.85;2.60;;;;;;;18.72;52.26;99053.97;3120802;28;20107;-75
2022/05/23 01:53:00;;;;;;;4.13;2.60;;;;;;;18.51;52.05;99025.09;3120369;28;20380;-75
2022/05/23 01:54:31;;;;;;;5.70;2.70;;;;;;;18.61;52.06;99034.69;3120924;28;20439;-76
2022/05/23 01:56:04;;;;;;;4.30;2.72;;;;;;;18.70;52.24;99054.09;3120780;28;20138;-75
2022/05/23 01:57:37;;;;;;;4.45;2.83;;;;;;;18.70;52.15;99056.75;3119259;28;20070;-75
2022/05/23 02:01:15;;;;;;;4.10;2.45;;;;;;;18.56;52.25;99031.63;3094607;28;20057;-75
2022/05/23 02:02:47;;;;;;;5.10;2.65;;;;;;;18.70;52.01;99051.47;3120468;28;20107;-75
2022/05/23 02:04:19;;;;;;;5.05;2.80;;;;;;;18.69;52.15;99051.59;3120823;28;20061;-75
2022/05/23 02:05:51;;;;;;;8.35;3.47;;;;;;;18.62;52.11;99041.59;3120819;28;20171;-75
2022/05/23 02:07:23;;;;;;;11.30;3.20;;;;;;;18.34;52.46;99002.91;3120234;28;20107;-75
2022/05/23 02:08:55;;;;;;;6.70;2.88;;;;;;;18.67;52.22;99043.00;3120737;28;20049;-75
2022/05/23 02:10:28;;;;;;;6.00;3.40;;;;;;;18.61;52.19;99033.84;3121159;28;20053;-76
2022/05/23 02:12:00;;;;;;;3.70;2.70;;;;;;;18.55;52.45;99026.50;3120373;28;20087;-75
2022/05/23 02:13:34;;;;;;;7.78;3.28;;;;;;;18.64;52.42;99046.75;3120514;28;20076;-76
2022/05/23 02:15:07;;;;;;;6.20;3.78;;;;;;;18.58;52.46;99039.41;3119749;28;20088;-76
2022/05/23 02:16:39;;;;;;;3.95;2.63;;;;;;;18.60;52.53;99048.84;3120598;28;20551;-76
2022/05/23 02:18:10;;;;;;;5.35;2.92;;;;;;;18.62;52.46;99048.69;3120629;28;20046;-76
2022/05/23 02:19:43;;;;;;;3.88;3.10;;;;;;;18.52;52.30;99026.78;3117949;28;20067;-76
2022/05/23 02:21:16;;;;;;;7.07;3.28;;;;;;;18.59;52.27;99033.97;3120625;28;20052;-76
2022/05/23 02:22:48;;;;;;;3.60;2.78;;;;;;;18.44;52.35;99006.38;3120331;28;20132;-76
2022/05/23 02:24:18;;;;;;;7.82;3.40;;;;;;;18.55;52.43;99021.22;3120397;28;20059;-76
2022/05/23 02:25:51;;;;;;;6.20;3.30;;;;;;;18.60;52.52;99034.81;3119782;28;20056;-76
2022/05/23 02:27:22;;;;;;;5.57;3.10;;;;;;;18.58;52.33;99027.03;3120289;28;20534;-76
2022/05/23 02:28:55;;;;;;;5.63;2.90;;;;;;;18.57;52.49;99035.06;3120684;28;20065;-76
2022/05/23 02:30:27;;;;;;;5.15;3.00;;;;;;;18.51;52.45;99025.91;3120432;28;20112;-76
2022/05/23 02:31:59;;;;;;;4.57;3.03;;;;;;;18.33;52.35;98996.78;3120339;28;20511;-76
2022/05/23 02:33:31;;;;;;;4.18;3.13;;;;;;;18.59;52.41;99038.41;3114136;28;20054;-75
2022/05/23 02:35:03;;;;;;;7.40;3.10;;;;;;;18.61;52.44;99037.31;3120167;28;20046;-76
2022/05/23 02:36:35;;;;;;;3.90;3.10;;;;;;;18.62;52.07;99038.97;3120603;28;20049;-76
2022/05/23 02:38:07;;;;;;;10.15;3.97;;;;;;;18.56;52.31;99028.97;3119632;28;20049;-76
2022/05/23 02:39:38;;;;;;;5.05;3.42;;;;;;;18.49;52.16;99013.88;3119820;28;20049;-75
2022/05/23 02:41:10;;;;;;;8.25;3.63;;;;;;;18.57;52.09;99033.28;3120121;28;20594;-76
2022/05/23 02:42:43;;;;;;;7.35;3.13;;;;;;;18.59;52.16;99027.88;3120266;28;20493;-76
2022/05/23 02:44:16;;;;;;;8.65;3.30;;;;;;;18.63;51.96;99030.09;3120406;28;20136;-76
2022/05/23 02:45:51;;;;;;;6.38;3.17;;;;;;;18.64;52.01;99033.56;3120454;28;20049;-75
2022/05/23 02:47:23;;;;;;;4.97;3.13;;;;;;;18.63;51.95;99030.09;3119927;28;20133;-76
2022/05/23 02:48:54;;;;;;;7.97;3.85;;;;;;;18.64;52.13;99033.56;3120430;28;20065;-75
2022/05/23 02:50:26;;;;;;;5.25;3.25;;;;;;;18.53;51.89;99007.34;3120269;28;20099;-76
2022/05/23 02:51:58;;;;;;;8.40;3.67;;;;;;;18.67;51.77;99025.38;3119794;28;20053;-76
2022/05/23 02:53:30;;;;;;;6.40;3.67;;;;;;;18.61;51.97;99025.94;3120216;28;20546;-75
2022/05/23 02:55:02;;;;;;;3.80;3.22;;;;;;;18.66;51.76;99031.59;3119883;28;20502;-75
2022/05/23 02:56:34;;;;;;;5.93;3.00;;;;;;;18.61;52.00;99031.22;3120380;28;20505;-75
2022/05/23 02:58:07;;;;;;;3.55;3.08;;;;;;;18.67;51.74;99033.28;3120002;28;20140;-75
2022/05/23 02:59:40;;;;;;;12.68;3.88;;;;;;;18.66;51.69;99028.97;3120027;28;20057;-75
2022/05/23 03:01:13;;;;;;;4.57;3.10;;;;;;;18.52;51.87;99010.97;3119905;28;20577;-75
2022/05/23 03:03:02;;;;;;;4.93;3.42;;;;;;;18.63;51.69;99034.53;3119989;28;20519;-75
2022/05/23 03:04:33;;;;;;;4.10;3.25;;;;;;;18.64;51.90;99033.56;3120306;28;20152;-76
2022/05/23 03:06:06;;;;;;;6.05;3.35;;;;;;;18.66;51.81;99031.59;3119999;28;20061;-76
2022/05/23 03:07:38;;;;;;;9.07;3.20;;;;;;;18.70;51.71;99035.66;3120238;28;20063;-76
2022/05/23 03:09:11;;;;;;;6.18;3.50;;;;;;;18.72;51.46;99038.13;3120021;28;20115;-76
2022/05/23 03:10:43;;;;;;;10.07;4.13;;;;;;;18.71;51.39;99042.56;3120439;28;20531;-74
2022/05/23 03:12:14;;;;;;;6.43;3.63;;;;;;;18.70;51.72;99042.72;3119814;28;20054;-74
2022/05/23 03:13:46;;;;;;;4.78;3.47;;;;;;;18.61;51.52;99018.84;3113379;28;20561;-74
2022/05/23 03:15:19;;;;;;;5.15;3.03;;;;;;;18.59;51.49;99027.88;3119716;28;20062;-74
2022/05/23 03:16:51;;;;;;;4.10;3.28;;;;;;;18.70;51.40;99042.72;3120013;28;20060;-75
2022/05/23 03:18:25;;;;;;;7.22;3.85;;;;;;;18.55;51.66;99019.41;3119508;28;20139;-74
2022/05/23 03:19:56;;;;;;;;;;;;;;;18.67;51.46;99045.66;3120354;28;20053;-74
2022/05/23 03:27:00;;;;;;;5.60;3.10;;;;;;;18.51;51.44;99033.81;3120078;28;20415;-75
2022/05/23 03:28:31;;;;;;;12.73;3.13;;;;;;;18.61;51.65;99047.88;3119970;28;20421;-74
2022/05/23 03:30:04;;;;;;;7.82;3.63;;;;;;;18.60;51.60;99050.63;3119994;28;20057;-74
2022/05/23 03:31:38;;;;;;;5.93;3.13;;;;;;;18.47;51.91;99023.72;3119599;28;20045;-74
2022/05/23 03:33:11;;;;;;;5.53;2.85;;;;;;;18.31;51.70;98993.47;3119878;28;20137;-74
2022/05/23 03:34:42;;;;;;;5.30;3.13;;;;;;;18.57;51.73;99040.34;3120094;28;20128;-74
2022/05/23 03:36:14;;;;;;;6.50;3.33;;;;;;;18.63;51.66;99050.34;3120017;28;20057;-74
2022/05/23 03:37:46;;;;;;;12.07;3.85;;;;;;;18.58;51.60;99036.75;3119709;28;20053;-76
2022/05/23 03:39:18;;;;;;;7.10;3.15;;;;;;;18.62;51.58;99044.25;3119953;28;20115;-74
2022/05/23 03:40:50;;;;;;;6.50;3.13;;;;;;;18.63;51.72;99053.84;3120010;28;20049;-74
2022/05/23 03:42:21;;;;;;;8.15;3.38;;;;;;;18.39;52.00;99021.75;3119774;28;20049;-75
2022/05/23 03:43:53;;;;;;;4.25;3.10;;;;;;;18.61;52.04;99054.94;3119749;28;20119;-76
2022/05/23 03:45:25;;;;;;;7.07;3.03;;;;;;;18.08;51.99;98976.25;3119853;28;20103;-75
2022/05/23 03:46:59;;;;;;;6.03;3.40;;;;;;;18.15;52.05;98986.09;3120168;28;20510;-76
2022/05/23 03:48:31;;;;;;;;;;;;;;;18.59;52.08;99051.59;3120321;28;20057;-75
2022/05/23 03:50:03;;;;;;;6.65;3.33;;;;;;;18.59;51.89;99054.25;3122308;28;19944;-75
2022/05/23 03:51:35;;;;;;;7.27;3.17;;;;;;;18.58;52.17;99058.69;3117212;28;20117;-75
2022/05/23 03:53:08;;;;;;;6.90;3.72;;;;;;;18.18;52.09;98993.72;3121477;28;20088;-75
2022/05/23 03:54:40;;;;;;;9.87;3.77;;;;;;;17.71;52.12;98918.91;3122369;28;20045;-76
2022/05/23 03:56:12;;;;;;;7.28;3.20;;;;;;;18.18;52.14;98992.88;3121788;28;20344;-75
2022/05/23 03:57:44;;;;;;;8.35;3.50;;;;;;;18.15;52.26;98995.81;3122350;28;20061;-75
2022/05/23 03:59:16;;;;;;;7.28;3.60;;;;;;;18.37;52.29;99037.72;3122056;28;20128;-74
2022/05/23 04:00:49;;;;;;;4.70;3.35;;;;;;;17.83;52.58;98959.16;3121956;28;20574;-74
2022/05/23 04:02:23;;;;;;;8.57;3.72;;;;;;;18.45;52.41;99059.91;3122038;28;20045;-74
2022/05/23 04:03:55;;;;;;;5.43;4.03;;;;;;;18.04;52.68;99001.19;3115259;28;20129;-74
2022/05/23 04:05:27;;;;;;;5.72;3.35;;;;;;;17.63;53.06;98939.81;3122430;28;20087;-74
2022/05/23 04:07:00;;;;;;;7.72;3.50;;;;;;;17.55;53.12;98937.03;3122165;28;20057;-75
2022/05/23 04:08:32;;;;;;;7.72;3.72;;;;;;;17.87;53.32;98987.72;3121446;28;20121;-75
2022/05/23 04:10:04;;;;;;;11.07;3.60;;;;;;;18.27;53.02;99057.94;3122491;28;20091;-75
2022/05/23 04:11:36;;;;;;;5.80;3.60;;;;;;;18.19;53.42;99042.00;3121910;28;20459;-75
2022/05/23 04:13:08;;;;;;;7.05;3.45;;;;;;;18.24;53.44;99062.66;3121666;28;20651;-75
2022/05/23 04:14:40;;;;;;;8.10;3.72;;;;;;;17.86;53.45;99001.84;3121769;28;20106;-75
2022/05/23 04:16:12;;;;;;;9.52;3.80;;;;;;;18.17;53.30;99041.31;3121889;28;20053;-75
2022/05/23 04:17:46;;;;;;;6.70;3.75;;;;;;;18.30;53.60;99054.22;3121895;28;20057;-75
2022/05/23 04:19:18;;;;;;;9.23;3.97;;;;;;;18.31;53.78;99064.63;3119444;28;20057;-75
2022/05/23 04:20:50;;;;;;;8.45;3.78;;;;;;;17.63;53.65;98951.19;3121405;28;20054;-75
2022/05/23 04:22:22;;;;;;;6.53;4.10;;;;;;;17.97;53.41;99000.91;3121801;28;20055;-75
2022/05/23 04:23:54;;;;;;;9.48;3.85;;;;;;;18.07;53.40;99000.91;3121319;28;20067;-74
2022/05/23 04:25:26;;;;;;;11.73;3.88;;;;;;;18.01;53.27;98986.47;3121629;28;20522;-75
2022/05/23 04:26:58;;;;;;;9.80;3.75;;;;;;;18.15;53.65;98996.63;3121904;28;20039;-75
2022/05/23 04:28:31;;;;;;;6.07;3.67;;;;;;;18.58;53.34;99060.50;3121761;28;20045;-74
2022/05/23 04:30:03;;;;;;;9.75;4.13;;;;;;;18.52;53.00;99039.97;3121663;28;20056;-74
2022/05/23 04:31:36;;;;;;;14.20;3.90;;;;;;;18.17;53.14;98980.69;3120798;28;20045;-75
2022/05/23 04:35:13;;;;;;;9.73;3.10;;;;;;;18.70;53.00;99050.66;3121693;28;20049;-75
2022/05/23 04:36:44;;;;;;;5.30;3.20;;;;;;;18.48;52.73;99001.63;3121850;28;20447;-75
2022/05/23 04:38:17;;;;;;;9.02;3.78;;;;;;;18.84;52.42;99047.59;3120696;28;20123;-75
2022/05/23 04:39:48;;;;;;;9.98;3.65;;;;;;;18.94;52.63;99053.69;3121312;28;20089;-75
2022/05/23 04:41:20;;;;;;;9.70;3.35;;;;;;;19.00;52.34;99049.69;3121320;28;20103;-75
2022/05/23 04:42:53;;;;;;;8.90;3.92;;;;;;;19.02;52.12;99045.94;3121341;28;20090;-75
2022/05/23 04:44:24;;;;;;;12.23;3.75;;;;;;;18.92;51.97;99023.16;3121449;28;20053;-75
2022/05/23 04:45:56;;;;;;;5.97;3.45;;;;;;;19.20;51.55;99055.75;3121708;28;20056;-75
2022/05/23 04:51:08;;;;;;;8.23;3.13;;;;;;;19.33;50.96;99043.88;3121381;28;20053;-76
2022/05/23 04:52:40;;;;;;;8.52;3.22;;;;;;;19.05;50.77;98976.19;3121525;28;20119;-75
2022/05/23 04:54:12;;;;;;;7.53;3.33;;;;;;;19.42;50.75;99039.56;3121025;28;20061;-76
2022/05/23 04:55:44;;;;;;;5.72;3.20;;;;;;;19.52;50.56;99042.16;3121815;28;20115;-76
2022/05/23 04:57:16;;;;;;;9.98;3.40;;;;;;;19.59;50.12;99048.53;3121122;28;20050;-75
2022/05/23 04:58:48;;;;;;;7.68;3.40;;;;;;;19.66;50.14;99048.81;3121550;28;20053;-76
2022/05/23 05:00:22;;;;;;;6.88;4.00;;;;;;;19.71;50.06;99041.28;3120690;28;20100;-76
2022/05/23 05:01:54;;;;;;;7.95;3.28;;;;;;;19.77;49.76;99043.34;3121142;28;20173;-76
2022/05/23 05:03:26;;;;;;;13.02;3.30;;;;;;;19.83;49.51;99032.19;3121248;28;20107;-76
2022/05/23 05:04:58;;;;;;;10.80;3.45;;;;;;;19.87;49.43;99030.06;3120738;28;20049;-76
2022/05/23 05:06:30;;;;;;;8.52;2.70;;;;;;;19.89;49.27;99028.13;3121479;28;20515;-75
2022/05/23 05:08:02;;;;;;;11.23;2.47;;;;;;;19.97;49.22;99036.16;3121664;28;20049;-76
2022/05/23 05:09:35;;;;;;;6.72;3.00;;;;;;;20.00;49.07;99030.56;3120415;28;20518;-76
2022/05/23 05:11:07;;;;;;;5.97;3.17;;;;;;;20.02;48.81;99033.88;3121691;28;20481;-76
2022/05/23 05:12:39;;;;;;;6.72;2.58;;;;;;;19.77;48.50;98988.69;3121428;28;20054;-76
2022/05/23 05:14:11;;;;;;;11.07;3.28;;;;;;;20.00;48.54;99022.66;3120553;28;21720;-75
2022/05/23 05:15:43;;;;;;;7.47;3.10;;;;;;;20.16;48.20;99041.31;3121392;28;20049;-76
2022/05/23 05:17:15;;;;;;;7.07;3.20;;;;;;;20.20;48.19;99033.91;3120929;28;20045;-76
2022/05/23 05:18:47;;;;;;;12.10;2.90;;;;;;;20.08;48.17;99012.13;3121352;28;20322;-76
2022/05/23 05:20:21;;;;;;;5.90;2.67;;;;;;;20.33;47.69;99036.19;3121286;28;20071;-75
2022/05/23 05:21:53;;;;;;;3.33;2.53;;;;;;;20.35;47.20;99031.56;3120838;28;20506;-76
2022/05/23 05:23:25;;;;;;;5.15;3.08;;;;;;;20.47;47.37;99046.25;3121156;28;20111;-75
2022/05/23 05:24:57;;;;;;;8.03;2.43;;;;;;;20.12;46.85;98971.22;3121387;28;20065;-76
2022/05/23 05:26:30;;;;;;;3.72;2.60;;;;;;;20.64;46.77;99040.16;3121101;28;20534;-76
2022/05/23 05:28:02;;;;;;;8.87;2.70;;;;;;;20.44;46.33;98991.03;3121086;28;20049;-76
2022/05/23 05:29:33;;;;;;;5.65;2.78;;;;;;;20.86;46.29;99038.03;3120820;28;20057;-76
2022/05/23 05:31:10;;;;;;;9.32;2.50;;;;;;;20.78;45.83;99017.63;3121404;28;20053;-75
2022/05/23 05:32:46;;;;;;;5.93;2.55;;;;;;;21.02;45.60;99032.00;3121160;28;20441;-76
2022/05/23 05:34:22;;;;;;;5.53;2.50;;;;;;;21.08;44.95;99031.38;3121017;28;20144;-76
2022/05/23 05:36:00;;;;;;;4.82;2.45;;;;;;;21.10;44.87;99035.56;3121037;28;20057;-76
2022/05/23 05:37:43;;;;;;;10.02;2.55;;;;;;;21.20;45.10;99043.38;3120463;28;20058;-76
2022/05/23 05:39:20;;;;;;;7.47;2.47;;;;;;;21.09;44.70;99012.72;3121051;28;20136;-76
2022/05/23 05:40:57;;;;;;;5.78;2.55;;;;;;;21.37;44.98;99043.53;3120684;28;20046;-76
2022/05/23 05:42:33;;;;;;;6.97;2.50;;;;;;;21.11;44.60;98988.72;3120762;28;20057;-76
2022/05/23 05:44:07;;;;;;;6.85;2.53;;;;;;;21.53;44.33;99048.91;3120671;28;20807;-76
2022/05/23 05:45:44;;;;;;;5.60;2.47;;;;;;;21.49;44.36;99027.19;3121380;28;20072;-76
2022/05/23 05:47:19;;;;;;;11.27;2.90;;;;;;;21.69;44.72;99041.03;3120719;28;20057;-76
2022/05/23 05:48:53;;;;;;;3.60;2.10;;;;;;;21.79;44.73;99046.22;3121113;28;20137;-76
2022/05/23 05:50:30;;;;;;;4.80;2.85;;;;;;;21.73;44.47;99018.53;3120747;28;20507;-76
2022/05/23 05:52:05;;;;;;;5.50;2.40;;;;;;;21.94;44.47;99030.53;3120695;28;20045;-76
2022/05/23 05:53:38;;;;;;;11.48;2.50;;;;;;;21.98;44.09;99035.38;3120845;28;20047;-76
2022/05/23 05:55:12;;;;;;;7.95;2.97;;;;;;;22.06;44.01;99034.53;3120501;28;20049;-76
2022/05/23 05:56:45;;;;;;;3.65;2.17;;;;;;;22.10;43.51;99035.91;3120913;28;20140;-76
2022/05/23 05:58:18;;;;;;;5.38;2.72;;;;;;;21.92;43.62;98998.91;3120847;28;20570;-76
2022/05/23 05:59:50;;;;;;;6.72;2.97;;;;;;;21.94;43.30;98994.25;3113535;28;20050;-76
2022/05/23 06:01:22;;;;;;;4.03;2.80;;;;;;;21.60;43.25;98922.78;3115578;28;20115;-76
2022/05/23 06:02:54;;;;;;;5.43;2.35;;;;;;;21.83;43.15;98952.16;3120589;28;20061;-75
2022/05/23 06:04:26;;;;;;;8.27;2.63;;;;;;;22.35;42.95;99031.50;3121054;28;20053;-74
2022/05/23 06:11:29;;;;;;;4.88;2.40;;;;;;;22.52;42.13;99010.28;3115328;28;20432;-75
2022/05/23 06:13:00;;;;;;;4.88;2.50;;;;;;;22.42;41.88;98984.75;3119735;28;20053;-75
2022/05/23 06:14:33;;;;;;;5.20;2.00;;;;;;;22.65;41.82;99021.22;3120390;28;20514;-75
2022/05/23 06:16:05;;;;;;;5.90;2.83;;;;;;;22.45;41.77;98987.09;3120558;28;20057;-75
2022/05/23 06:17:40;;;;;;;8.20;2.20;;;;;;;;;;3120623;28;20092;-75
2022/05/23 06:19:12;;;;;;;5.93;2.85;;;;;;;22.38;41.49;98980.75;3120344;28;20107;-75
2022/05/23 06:20:44;;;;;;;6.82;2.15;;;;;;;22.06;41.17;98931.13;3120429;28;20080;-75
2022/05/23 06:22:18;;;;;;;4.32;2.42;;;;;;;22.27;41.24;98949.25;3120430;28;20060;-74
2022/05/23 06:23:51;;;;;;;6.10;2.22;;;;;;;22.41;41.10;98977.78;3120155;28;20300;-75
2022/05/23 06:25:23;;;;;;;7.60;2.35;;;;;;;22.48;41.11;98978.78;3120589;28;20041;-75
2022/05/23 06:26:55;;;;;;;7.30;3.22;;;;;;;22.12;40.90;98911.09;3114081;28;20598;-75
2022/05/23 06:28:27;;;;;;;5.68;2.55;;;;;;;22.44;41.10;98969.47;3120094;28;20119;-75
2022/05/23 06:29:59;;;;;;;4.22;2.38;;;;;;;22.78;41.06;99010.97;3120423;28;20054;-75
2022/05/23 06:31:31;;;;;;;6.40;2.60;;;;;;;22.61;40.72;98969.50;3120406;28;20065;-75
2022/05/23 06:33:04;;;;;;;3.85;2.25;;;;;;;22.49;40.32;98945.94;3119120;28;20049;-74
2022/05/23 06:34:36;;;;;;;4.90;2.80;;;;;;;22.75;40.32;98982.09;3120692;28;20053;-75
2022/05/23 06:36:09;;;;;;;5.53;2.20;;;;;;;22.98;40.19;99007.97;3120275;28;20052;-75
2022/05/23 06:37:43;;;;;;;7.15;3.03;;;;;;;23.09;40.25;99018.25;3120080;28;21005;-75
2022/05/23 06:39:17;;;;;;;7.00;2.60;;;;;;;22.78;39.85;98957.88;3113865;28;20111;-75
2022/05/23 06:40:50;;;;;;;3.03;2.20;;;;;;;23.12;40.11;99008.13;3120080;28;20065;-76
2022/05/23 06:42:22;;;;;;;6.43;2.22;;;;;;;23.15;39.66;99005.13;3120224;28;20054;-74
2022/05/23 06:43:54;;;;;;;6.70;2.10;;;;;;;23.10;39.87;98982.72;3119948;28;20152;-75
2022/05/23 06:45:26;;;;;;;6.70;2.25;;;;;;;23.01;39.32;98966.00;3120169;28;20056;-74
2022/05/23 06:46:58;;;;;;;5.40;2.15;;;;;;;22.80;39.20;98925.84;3120422;28;20049;-75
2022/05/23 06:48:31;;;;;;;11.43;2.50;;;;;;;22.90;39.24;98937.13;3120062;28;20057;-75
2022/05/23 06:50:04;;;;;;;6.55;2.28;;;;;;;22.66;39.20;98882.25;3120344;28;20111;-75
2022/05/23 06:51:36;;;;;;;5.38;2.22;;;;;;;23.49;39.18;99003.22;3113906;28;20053;-76
2022/05/23 06:53:08;;;;;;;10.68;2.40;;;;;;;23.05;38.67;98922.16;3120268;28;20111;-76
2022/05/23 06:54:42;;;;;;;7.45;2.70;;;;;;;23.48;38.04;98986.44;3120235;28;20061;-76
2022/05/23 06:56:15;;;;;;;10.25;2.50;;;;;;;23.62;37.90;98998.19;3119891;28;20053;-76
2022/05/23 06:57:47;;;;;;;4.43;2.10;;;;;;;23.52;38.35;98973.66;3120226;28;20125;-76
2022/05/23 06:59:20;;;;;;;4.85;2.15;;;;;;;23.55;37.84;98955.53;3120203;28;20079;-76
2022/05/23 07:00:53;;;;;;;3.70;1.90;;;;;;;23.70;36.95;98976.91;3120132;28;20149;-76
2022/05/23 07:02:26;;;;;;;5.15;2.08;;;;;;;23.90;36.72;99005.72;3120160;28;20442;-75
2022/05/23 07:03:58;;;;;;;6.38;2.08;;;;;;;23.98;37.51;99003.00;3119860;28;20079;-75
2022/05/23 07:13:04;;;;;;;8.93;2.38;;;;;;;24.02;35.73;98945.84;3120091;28;20050;-75
2022/05/23 07:14:36;;;;;;;7.68;2.30;;;;;;;24.46;35.70;98993.94;3119932;28;20155;-76
2022/05/23 07:16:09;;;;;;;6.47;2.08;;;;;;;24.37;35.88;98963.00;3120046;28;20088;-76
2022/05/23 07:17:41;;;;;;;10.82;2.40;;;;;;;24.68;35.78;98997.56;3120162;28;20140;-75
2022/05/23 07:19:13;;;;;;;6.85;2.30;;;;;;;24.22;35.70;98909.75;3119970;28;20113;-76
2022/05/23 07:20:46;;;;;;;6.77;2.17;;;;;;;24.28;35.30;98924.16;3119908;28;20152;-76
2022/05/23 07:22:18;;;;;;;12.07;2.20;;;;;;;24.82;34.97;98998.63;3120091;28;20088;-75
2022/05/23 07:23:50;;;;;;;10.80;2.50;;;;;;;24.58;34.54;98958.88;3120543;28;20054;-76
2022/05/23 07:25:22;;;;;;;2.70;1.70;;;;;;;24.20;33.98;98890.50;3122719;28;20053;-76
2022/05/23 07:26:55;;;;;;;3.40;1.95;;;;;;;24.48;34.54;98919.22;3122736;28;20482;-76
2022/05/23 07:28:27;;;;;;;9.60;2.22;;;;;;;25.06;34.28;98997.56;3122087;28;20049;-75
2022/05/23 07:29:59;;;;;;;3.17;1.70;;;;;;;24.82;34.67;98956.00;3122432;28;20053;-76
2022/05/23 07:31:31;;;;;;;5.07;2.20;;;;;;;24.54;33.97;98894.53;3122232;28;20054;-76
2022/05/23 07:33:03;;;;;;;3.78;2.03;;;;;;;24.98;33.73;98957.69;3122111;28;20049;-76
2022/05/23 07:34:36;;;;;;;7.28;1.70;;;;;;;25.03;33.17;98949.16;3122584;28;20123;-76
2022/05/23 07:36:09;;;;;;;3.75;1.83;;;;;;;25.43;32.77;99006.50;3122160;28;20095;-75
2022/05/23 07:37:41;;;;;;;9.60;2.10;;;;;;;25.13;31.94;98955.03;3122169;28;20140;-75
2022/05/23 07:39:13;;;;;;;5.28;1.55;;;;;;;25.35;32.06;98987.94;3122017;28;20179;-75
2022/05/23 07:40:49;;;;;;;4.82;1.88;;;;;;;25.41;32.29;98981.91;3122090;28;20148;-75
2022/05/23 07:42:22;;;;;;;3.63;1.60;;;;;;;25.10;32.71;98926.91;3122340;28;20473;-75
2022/05/23 07:43:54;;;;;;;4.32;2.00;;;;;;;25.16;32.38;98931.53;3121633;28;20137;-75
2022/05/23 07:45:26;;;;;;;2.15;1.58;;;;;;;25.05;32.28;98899.16;3122441;28;20042;-76
2022/05/23 07:46:58;;;;;;;5.97;1.75;;;;;;;25.81;32.03;99004.53;3122581;28;20060;-76
2022/05/23 07:48:30;;;;;;;3.47;1.60;;;;;;;25.34;32.07;98923.16;3122025;28;20071;-75
2022/05/23 07:50:02;;;;;;;10.93;1.67;;;;;;;25.33;31.31;98897.53;3122257;28;20084;-75